createdAt,value
2019-02-21T00:01:56.434Z,7.33
2019-02-21T00:04:31.443Z,7.27
2019-02-21T00:07:06.482Z,7.97
2019-02-21T00:09:41.506Z,7.83
2019-02-21T00:12:16.908Z,7.73
2019-02-21T00:14:52.208Z,7.80
2019-02-21T00:17:27.506Z,8.50
2019-02-21T00:20:02.560Z,8.73
2019-02-21T00:22:39.452Z,8.13
2019-02-21T00:25:14.822Z,8.47
2019-02-21T00:27:50.097Z,8.07
2019-02-21T00:30:34.943Z,8.60
2019-02-21T00:33:01.849Z,7.50
2019-02-21T00:35:36.933Z,8.33
2019-02-21T00:38:12.890Z,9.23
2019-02-21T00:40:48.826Z,8.67
2019-02-21T00:43:24.902Z,7.83
2019-02-21T00:46:00.203Z,8.70
2019-02-21T00:48:35.317Z,8.87
2019-02-21T00:51:10.333Z,7.50
2019-02-21T00:53:45.660Z,8.03
2019-02-21T00:56:22.454Z,7.40
2019-02-21T00:58:57.476Z,8.00
2019-02-21T01:01:32.865Z,8.13
2019-02-21T01:04:07.966Z,8.10
2019-02-21T01:06:45.075Z,8.03
2019-02-21T01:09:20.853Z,9.00
2019-02-21T01:11:55.911Z,8.63
2019-02-21T01:14:31.017Z,7.40
2019-02-21T01:17:06.442Z,7.53
2019-02-21T01:19:41.467Z,6.97
2019-02-21T01:22:16.479Z,8.37
2019-02-21T01:24:51.557Z,7.50
2019-02-21T01:27:26.561Z,7.43
2019-02-21T01:30:01.601Z,7.43
2019-02-21T01:32:37.984Z,8.40
2019-02-21T01:35:13.273Z,8.03
2019-02-21T01:37:48.574Z,8.90
2019-02-21T01:40:23.838Z,8.57
2019-02-21T01:43:00.106Z,8.87
2019-02-21T01:45:35.153Z,8.63
2019-02-21T01:48:12.138Z,8.60
2019-02-21T01:50:47.590Z,7.93
2019-02-21T01:53:22.651Z,6.77
2019-02-21T01:55:57.848Z,7.00
2019-02-21T01:58:33.225Z,7.73
2019-02-21T02:01:09.069Z,6.50
2019-02-21T02:03:44.303Z,7.53
2019-02-21T02:06:19.358Z,6.30
2019-02-21T02:08:54.728Z,7.03
2019-02-21T02:11:30.649Z,6.37
2019-02-21T02:14:05.778Z,7.53
2019-02-21T02:16:40.805Z,7.43
2019-02-21T02:19:15.860Z,7.07
2019-02-21T02:21:51.252Z,6.70
2019-02-21T02:24:26.316Z,7.40
2019-02-21T02:27:01.602Z,7.73
2019-02-21T02:29:36.737Z,7.63
2019-02-21T02:32:12.982Z,9.57
2019-02-21T02:34:48.021Z,7.47
2019-02-21T02:37:23.317Z,8.40
2019-02-21T02:39:59.340Z,8.80
2019-02-21T02:42:34.394Z,8.27
2019-02-21T02:45:09.620Z,9.07
2019-02-21T02:47:44.962Z,8.97
2019-02-21T02:50:20.083Z,9.60
2019-02-21T02:52:55.377Z,9.23
2019-02-21T02:55:30.393Z,9.80
2019-02-21T02:58:06.528Z,9.33
2019-02-21T03:00:42.146Z,10.10
2019-02-21T03:03:17.257Z,10.00
2019-02-21T03:05:52.294Z,10.03
2019-02-21T03:08:27.601Z,11.20
2019-02-21T03:11:03.623Z,9.43
2019-02-21T03:13:39.642Z,10.73
2019-02-21T03:16:14.746Z,12.83
2019-02-21T03:18:51.026Z,11.73
2019-02-21T03:21:26.457Z,11.90
2019-02-21T03:24:01.492Z,10.83
2019-02-21T03:26:36.591Z,12.30
2019-02-21T03:29:11.986Z,12.37
2019-02-21T03:31:54.487Z,12.13
2019-02-21T03:34:24.098Z,12.97
2019-02-21T03:36:59.268Z,11.77
2019-02-21T03:39:34.791Z,11.53
2019-02-21T03:42:09.807Z,11.53
2019-02-21T03:44:44.982Z,14.17
2019-02-21T03:47:20.017Z,12.50
2019-02-21T03:49:55.052Z,15.07
2019-02-21T03:52:30.477Z,13.83
2019-02-21T03:55:06.824Z,13.73
2019-02-21T03:57:41.946Z,13.93
2019-02-21T04:00:16.990Z,13.20
2019-02-21T04:02:52.343Z,14.10
2019-02-21T04:05:27.411Z,14.10
2019-02-21T04:08:02.521Z,12.57
2019-02-21T04:10:37.970Z,14.43
2019-02-21T04:13:15.207Z,13.77
2019-02-21T04:15:52.962Z,15.23
2019-02-21T04:18:27.654Z,14.67
2019-02-21T04:21:02.492Z,16.63
2019-02-21T04:23:37.531Z,14.67
2019-02-21T04:26:12.662Z,16.07
2019-02-21T04:28:47.710Z,16.37
2019-02-21T04:31:22.850Z,14.87
2019-02-21T04:33:57.895Z,17.17
2019-02-21T04:36:32.929Z,16.30
2019-02-21T04:39:08.048Z,16.50
2019-02-21T04:41:43.079Z,16.37
2019-02-21T04:44:18.183Z,17.07
2019-02-21T04:46:54.609Z,17.23
2019-02-21T04:49:29.607Z,15.83
2019-02-21T04:52:05.009Z,17.00
2019-02-21T04:54:40.076Z,17.53
2019-02-21T04:57:15.126Z,18.87
2019-02-21T04:59:50.160Z,17.67
2019-02-21T05:02:29.196Z,17.73
2019-02-21T05:05:01.987Z,17.57
2019-02-21T05:07:37.425Z,18.03
2019-02-21T05:10:13.364Z,19.03
2019-02-21T05:12:48.401Z,19.63
2019-02-21T05:15:23.913Z,18.67
2019-02-21T05:17:58.628Z,18.67
2019-02-21T05:20:33.492Z,19.77
2019-02-21T05:23:09.229Z,18.00
2019-02-21T05:25:44.436Z,20.30
2019-02-21T05:28:27.156Z,19.33
2019-02-21T05:31:03.515Z,22.97
2019-02-21T05:33:45.079Z,21.67
2019-02-21T05:36:25.050Z,19.03
2019-02-21T05:39:01.737Z,22.00
2019-02-21T05:41:42.753Z,21.80
2019-02-21T05:44:21.790Z,20.10
2019-02-21T05:47:11.023Z,20.40
2019-02-21T05:50:04.926Z,20.17
2019-02-21T05:52:59.011Z,21.00
2019-02-21T05:55:36.165Z,20.93
2019-02-21T05:58:27.250Z,23.50
2019-02-21T06:01:10.503Z,20.17
2019-02-21T06:04:00.459Z,21.07
2019-02-21T06:06:38.760Z,20.30
2019-02-21T06:09:33.702Z,22.53
2019-02-21T06:12:10.429Z,22.13
2019-02-21T06:14:53.556Z,19.90
2019-02-21T06:17:30.668Z,20.47
2019-02-21T06:20:25.329Z,22.60
2019-02-21T06:23:01.834Z,21.33
2019-02-21T06:25:53.007Z,21.23
2019-02-21T06:28:26.778Z,22.57
2019-02-21T06:31:03.297Z,21.47
2019-02-21T06:33:40.313Z,20.73
2019-02-21T06:36:15.356Z,21.93
2019-02-21T06:38:50.057Z,20.20
2019-02-21T06:41:26.254Z,22.00
2019-02-21T06:44:01.681Z,23.50
2019-02-21T06:46:36.728Z,21.50
2019-02-21T06:49:11.822Z,22.00
2019-02-21T06:51:47.773Z,21.10
2019-02-21T06:54:22.982Z,20.77
2019-02-21T06:56:59.105Z,21.17
2019-02-21T06:59:43.363Z,22.57
2019-02-21T07:02:13.561Z,21.47
2019-02-21T07:04:48.554Z,20.77
2019-02-21T07:07:23.595Z,20.90
2019-02-21T07:09:58.619Z,21.27
2019-02-21T07:12:34.033Z,23.23
2019-02-21T07:15:11.031Z,20.97
2019-02-21T07:17:49.199Z,20.53
2019-02-21T07:20:22.881Z,20.20
2019-02-21T07:22:58.090Z,20.50
2019-02-21T07:25:45.054Z,19.13
2019-02-21T07:28:21.599Z,20.20
2019-02-21T07:30:56.706Z,21.37
2019-02-21T07:33:31.749Z,19.60
2019-02-21T07:36:06.778Z,19.90
2019-02-21T07:38:42.323Z,18.63
2019-02-21T07:41:24.585Z,18.87
2019-02-21T07:44:11.182Z,20.13
2019-02-21T07:46:36.634Z,20.03
2019-02-21T07:49:15.571Z,18.57
2019-02-21T07:51:51.667Z,18.47
2019-02-21T07:54:27.153Z,19.50
2019-02-21T07:57:02.242Z,17.97
2019-02-21T07:59:37.742Z,18.27
2019-02-21T08:02:13.704Z,18.90
2019-02-21T08:04:48.544Z,18.43
2019-02-21T08:07:23.124Z,19.17
2019-02-21T08:09:57.627Z,19.80
2019-02-21T08:12:32.161Z,17.90
2019-02-21T08:15:08.445Z,19.13
2019-02-21T08:17:43.259Z,20.57
2019-02-21T08:20:17.834Z,18.97
2019-02-21T08:22:52.657Z,18.50
2019-02-21T08:25:28.489Z,17.53
2019-02-21T08:28:03.655Z,18.23
2019-02-21T08:30:38.480Z,19.90
2019-02-21T08:33:15.253Z,19.60
2019-02-21T08:35:53.965Z,17.47
2019-02-21T08:38:29.508Z,20.93
2019-02-21T08:41:04.209Z,20.27
2019-02-21T08:43:39.990Z,20.63
2019-02-21T08:46:15.026Z,19.67
2019-02-21T08:48:50.605Z,20.83
2019-02-21T08:51:25.731Z,19.90
2019-02-21T08:54:01.412Z,20.17
2019-02-21T08:56:38.457Z,20.17
2019-02-21T08:59:12.981Z,18.43
2019-02-21T09:01:47.919Z,19.03
2019-02-21T09:04:27.584Z,21.30
2019-02-21T09:06:59.157Z,19.63
2019-02-21T09:09:34.017Z,18.37
2019-02-21T09:12:09.596Z,23.50
2019-02-21T09:14:44.550Z,19.33
2019-02-21T09:17:19.341Z,19.07
2019-02-21T09:19:54.699Z,19.63
2019-02-21T09:22:30.754Z,19.10
2019-02-21T09:25:07.003Z,19.20
2019-02-21T09:27:43.284Z,18.53
2019-02-21T09:30:21.291Z,18.87
2019-02-21T09:32:56.857Z,20.30
2019-02-21T09:35:31.697Z,18.77
2019-02-21T09:38:06.284Z,20.73
2019-02-21T09:40:42.761Z,17.30
2019-02-21T09:43:17.523Z,19.60
2019-02-21T09:45:53.438Z,18.60
2019-02-21T09:48:27.986Z,18.90
2019-02-21T09:51:02.978Z,18.37
2019-02-21T09:53:37.589Z,18.50
2019-02-21T09:56:12.350Z,17.57
2019-02-21T09:58:46.894Z,17.67
2019-02-21T10:01:21.459Z,19.03
2019-02-21T10:03:57.366Z,18.23
2019-02-21T10:06:32.501Z,17.87
2019-02-21T10:09:09.391Z,17.90
2019-02-21T10:11:44.245Z,17.70
2019-02-21T10:14:21.932Z,17.67
2019-02-21T10:16:57.026Z,17.50
2019-02-21T10:19:35.598Z,17.00
2019-02-21T10:22:11.094Z,17.03
2019-02-21T10:24:46.538Z,16.93
2019-02-21T10:27:21.886Z,17.93
2019-02-21T10:29:57.213Z,17.43
2019-02-21T10:32:32.276Z,16.03
2019-02-21T10:35:08.241Z,17.07
2019-02-21T10:37:43.320Z,15.93
2019-02-21T10:40:19.850Z,14.73
2019-02-21T10:42:56.322Z,16.97
2019-02-21T10:45:31.350Z,14.43
2019-02-21T10:48:06.390Z,14.60
2019-02-21T10:50:42.403Z,14.93
2019-02-21T10:53:17.474Z,15.77
2019-02-21T10:55:53.842Z,14.97
2019-02-21T10:58:29.875Z,14.03
2019-02-21T11:01:06.301Z,15.50
2019-02-21T11:03:41.388Z,14.57
2019-02-21T11:06:16.490Z,17.17
2019-02-21T11:08:51.639Z,13.90
2019-02-21T11:11:27.773Z,14.47
2019-02-21T11:14:05.117Z,14.50
2019-02-21T11:16:40.260Z,12.80
2019-02-21T11:19:16.397Z,13.20
2019-02-21T11:21:51.538Z,14.30
2019-02-21T11:24:30.216Z,13.53
2019-02-21T11:27:05.233Z,14.77
2019-02-21T11:29:41.267Z,13.80
2019-02-21T11:32:16.438Z,12.80
2019-02-21T11:34:51.813Z,12.70
2019-02-21T11:37:26.902Z,12.30
2019-02-21T11:40:07.446Z,12.10
2019-02-21T11:42:42.520Z,12.07
2019-02-21T11:45:18.624Z,13.30
2019-02-21T11:47:53.836Z,13.77
2019-02-21T11:50:29.336Z,12.10
2019-02-21T11:53:04.756Z,12.23
2019-02-21T11:55:40.213Z,13.70
2019-02-21T11:58:16.173Z,11.90
2019-02-21T12:00:51.525Z,12.27
2019-02-21T12:03:27.671Z,11.20
2019-02-21T12:06:04.763Z,11.73
2019-02-21T12:08:41.705Z,12.50
2019-02-21T12:11:16.749Z,11.20
2019-02-21T12:13:53.221Z,10.83
2019-02-21T12:16:28.273Z,11.60
2019-02-21T12:19:03.842Z,12.10
2019-02-21T12:21:39.626Z,12.03
2019-02-21T12:24:14.770Z,14.10
2019-02-21T12:26:50.182Z,12.20
2019-02-21T12:29:25.294Z,12.50
2019-02-21T12:32:00.386Z,11.47
2019-02-21T12:34:36.430Z,11.60
2019-02-21T12:37:12.775Z,11.83
2019-02-21T12:39:47.818Z,12.30
2019-02-21T12:42:22.865Z,12.13
2019-02-21T12:44:57.937Z,11.30
2019-02-21T12:47:33.036Z,11.93
2019-02-21T12:50:10.299Z,11.70
2019-02-21T12:52:45.338Z,10.13
2019-02-21T12:55:28.183Z,9.83
2019-02-21T12:57:57.310Z,9.87
2019-02-21T13:00:32.349Z,11.27
2019-02-21T13:03:07.454Z,10.60
2019-02-21T13:05:44.690Z,10.40
2019-02-21T13:08:20.147Z,9.70
2019-02-21T13:10:55.198Z,9.60
2019-02-21T13:13:30.235Z,9.47
2019-02-21T13:16:05.268Z,9.77
2019-02-21T13:18:40.304Z,9.23
2019-02-21T13:21:15.342Z,9.10
2019-02-21T13:23:50.782Z,8.20
2019-02-21T13:26:26.109Z,7.80
2019-02-21T13:29:01.464Z,9.03
2019-02-21T13:31:36.903Z,7.80
2019-02-21T13:34:12.839Z,7.93
2019-02-21T13:36:47.972Z,7.77
2019-02-21T13:39:23.958Z,7.97
2019-02-21T13:41:58.994Z,9.40
2019-02-21T13:44:35.073Z,8.00
2019-02-21T13:47:10.171Z,7.93
2019-02-21T13:49:45.551Z,8.50
2019-02-21T13:52:21.146Z,7.83
2019-02-21T13:54:57.107Z,7.33
2019-02-21T13:57:32.483Z,7.50
2019-02-21T14:00:13.614Z,8.57
2019-02-21T14:02:49.926Z,8.23
2019-02-21T14:05:25.965Z,7.70
2019-02-21T14:08:01.054Z,7.93
2019-02-21T14:10:36.139Z,8.30
2019-02-21T14:13:11.902Z,7.43
2019-02-21T14:15:48.582Z,6.70
2019-02-21T14:18:24.498Z,9.37
2019-02-21T14:20:59.750Z,8.50
2019-02-21T14:23:34.769Z,8.13
2019-02-21T14:26:10.094Z,8.03
2019-02-21T14:28:45.136Z,8.77
2019-02-21T14:31:20.342Z,8.47
2019-02-21T14:33:55.405Z,7.70
2019-02-21T14:36:30.541Z,8.67
2019-02-21T14:39:06.250Z,9.53
2019-02-21T14:41:43.879Z,11.70
2019-02-21T14:44:18.527Z,9.20
2019-02-21T14:46:53.959Z,10.87
2019-02-21T14:49:28.987Z,9.10
2019-02-21T14:52:05.538Z,9.80
2019-02-21T14:54:40.820Z,11.47
2019-02-21T14:57:16.135Z,10.17
2019-02-21T14:59:52.141Z,9.53
2019-02-21T15:02:27.523Z,9.73
2019-02-21T15:05:06.701Z,10.43
2019-02-21T15:07:42.100Z,9.70
2019-02-21T15:10:17.195Z,9.80
2019-02-21T15:12:52.762Z,10.20
2019-02-21T15:15:28.650Z,11.20
2019-02-21T15:18:07.609Z,12.13
2019-02-21T15:20:43.377Z,13.00
2019-02-21T15:23:18.530Z,10.47
2019-02-21T15:25:54.474Z,10.60
2019-02-21T15:28:29.525Z,10.27
2019-02-21T15:31:04.646Z,8.80
2019-02-21T15:33:40.915Z,9.93
2019-02-21T15:36:16.043Z,10.50
2019-02-21T15:38:52.050Z,10.07
2019-02-21T15:41:27.103Z,10.37
2019-02-21T15:44:02.174Z,9.57
2019-02-21T15:46:37.488Z,10.63
2019-02-21T15:49:13.920Z,10.50
2019-02-21T15:51:49.057Z,10.10
2019-02-21T15:54:25.882Z,10.77
2019-02-21T15:57:00.909Z,10.43
2019-02-21T15:59:36.863Z,10.87
2019-02-21T16:02:13.072Z,10.53
2019-02-21T16:04:48.380Z,11.13
2019-02-21T16:07:23.693Z,11.13
2019-02-21T16:10:00.031Z,10.23
2019-02-21T16:12:35.247Z,10.57
2019-02-21T16:15:16.422Z,10.17
2019-02-21T16:17:51.026Z,9.80
2019-02-21T16:20:28.133Z,10.07
2019-02-21T16:23:03.483Z,10.23
2019-02-21T16:25:39.738Z,9.20
2019-02-21T16:28:14.774Z,10.40
2019-02-21T16:30:51.412Z,9.20
2019-02-21T16:33:29.876Z,9.93
2019-02-21T16:36:04.917Z,9.30
2019-02-21T16:38:41.187Z,9.47
2019-02-21T16:41:16.535Z,9.47
2019-02-21T16:43:51.944Z,9.00
2019-02-21T16:46:27.484Z,9.07
2019-02-21T16:49:02.556Z,10.50
2019-02-21T16:51:38.001Z,9.60
2019-02-21T16:54:14.099Z,10.57
2019-02-21T16:56:49.154Z,8.80
2019-02-21T16:59:24.164Z,9.00
2019-02-21T17:01:59.237Z,8.67
2019-02-21T17:04:34.361Z,9.40
2019-02-21T17:07:13.709Z,10.20
2019-02-21T17:09:48.709Z,9.70
2019-02-21T17:12:24.019Z,10.40
2019-02-21T17:14:59.324Z,21.10
2019-02-21T17:17:34.335Z,8.30
2019-02-21T17:20:12.805Z,10.40
2019-02-21T17:22:48.393Z,9.07
2019-02-21T17:25:23.440Z,9.40
2019-02-21T17:27:58.475Z,9.23
2019-02-21T17:30:33.597Z,8.63
2019-02-21T17:33:08.635Z,8.33
2019-02-21T17:35:43.672Z,9.70
2019-02-21T17:38:19.095Z,9.43
2019-02-21T17:40:54.424Z,9.53
2019-02-21T17:43:29.759Z,9.60
2019-02-21T17:46:05.132Z,8.63
2019-02-21T17:48:41.260Z,10.57
2019-02-21T17:51:16.713Z,11.13
2019-02-21T17:53:52.941Z,11.33
2019-02-21T17:56:28.743Z,10.80
2019-02-21T17:59:06.043Z,13.40
2019-02-21T18:01:41.171Z,10.90
2019-02-21T18:04:16.259Z,14.90
2019-02-21T18:06:53.279Z,11.60
2019-02-21T18:09:28.338Z,11.97
2019-02-21T18:12:03.674Z,12.17
2019-02-21T18:14:38.806Z,15.93
2019-02-21T18:17:13.842Z,14.30
2019-02-21T18:19:49.976Z,16.40
2019-02-21T18:22:25.075Z,15.40
2019-02-21T18:25:01.289Z,16.07
2019-02-21T18:27:36.835Z,17.80
2019-02-21T18:30:14.922Z,19.33
2019-02-21T18:32:50.014Z,18.50
2019-02-21T18:35:27.034Z,20.50
2019-02-21T18:38:02.072Z,21.17
2019-02-21T18:40:37.218Z,21.27
2019-02-21T18:43:12.241Z,21.27
2019-02-21T18:45:47.609Z,22.03
2019-02-21T18:48:22.625Z,22.40
2019-02-21T18:50:57.675Z,22.70
2019-02-21T18:53:33.057Z,25.47
2019-02-21T18:56:08.705Z,25.53
2019-02-21T18:58:44.046Z,28.10
2019-02-21T19:01:22.392Z,26.57
2019-02-21T19:03:57.821Z,23.83
2019-02-21T19:06:32.929Z,24.13
2019-02-21T19:09:08.132Z,25.03
2019-02-21T19:11:43.720Z,23.00
2019-02-21T19:14:18.833Z,23.37
2019-02-21T19:16:55.812Z,21.47
2019-02-21T19:19:30.871Z,23.80
2019-02-21T19:22:06.412Z,22.80
2019-02-21T19:24:41.528Z,24.07
2019-02-21T19:27:16.566Z,24.73
2019-02-21T19:29:51.621Z,25.03
2019-02-21T19:32:26.974Z,25.90
2019-02-21T19:35:02.031Z,24.43
2019-02-21T19:37:37.557Z,25.20
2019-02-21T19:40:13.260Z,27.20
2019-02-21T19:42:48.726Z,28.23
2019-02-21T19:45:24.382Z,30.40
2019-02-21T19:47:59.562Z,29.13
2019-02-21T19:50:34.680Z,28.97
2019-02-21T19:53:09.829Z,29.10
2019-02-21T19:55:45.007Z,26.63
2019-02-21T19:58:21.402Z,27.93
2019-02-21T20:00:56.971Z,24.63
2019-02-21T20:03:32.007Z,25.50
2019-02-21T20:06:07.429Z,30.33
2019-02-21T20:08:43.455Z,30.17
2019-02-21T20:11:18.585Z,32.00
2019-02-21T20:13:53.971Z,33.93
2019-02-21T20:16:29.168Z,33.17
2019-02-21T20:19:04.222Z,28.13
2019-02-21T20:21:39.576Z,32.70
2019-02-21T20:24:14.631Z,32.90
2019-02-21T20:26:49.676Z,28.27
2019-02-21T20:29:25.722Z,31.10
2019-02-21T20:32:00.753Z,27.97
2019-02-21T20:34:38.926Z,27.73
2019-02-21T20:37:14.913Z,28.77
2019-02-21T20:39:49.952Z,28.90
2019-02-21T20:42:26.081Z,29.20
2019-02-21T20:45:02.390Z,27.33
2019-02-21T20:47:38.650Z,29.47
2019-02-21T20:50:14.123Z,26.17
2019-02-21T20:52:49.154Z,27.90
2019-02-21T20:55:24.567Z,29.77
2019-02-21T20:57:59.651Z,29.93
2019-02-21T21:00:34.871Z,28.00
2019-02-21T21:03:10.595Z,28.50
2019-02-21T21:05:46.167Z,28.27
2019-02-21T21:08:21.348Z,29.87
2019-02-21T21:10:56.534Z,29.63
2019-02-21T21:13:31.630Z,30.50
2019-02-21T21:16:07.683Z,28.30
2019-02-21T21:18:43.060Z,28.57
2019-02-21T21:21:18.520Z,26.67
2019-02-21T21:23:53.866Z,27.57
2019-02-21T21:26:29.358Z,25.57
2019-02-21T21:29:04.843Z,30.70
2019-02-21T21:31:40.187Z,27.57
2019-02-21T21:34:16.349Z,26.90
2019-02-21T21:36:51.461Z,28.70
2019-02-21T21:39:26.495Z,27.23
2019-02-21T21:42:01.527Z,26.83
2019-02-21T21:44:36.569Z,29.37
2019-02-21T21:47:12.718Z,25.53
2019-02-21T21:49:48.187Z,26.57
2019-02-21T21:52:23.223Z,23.53
2019-02-21T21:54:58.563Z,25.63
2019-02-21T21:57:33.705Z,27.60
2019-02-21T22:00:18.128Z,25.73
2019-02-21T22:02:53.692Z,23.43
2019-02-21T22:05:28.706Z,24.53
2019-02-21T22:08:03.743Z,25.80
2019-02-21T22:10:41.168Z,24.73
2019-02-21T22:13:16.234Z,24.03
2019-02-21T22:15:51.613Z,23.03
2019-02-21T22:18:27.713Z,28.20
2019-02-21T22:21:04.647Z,25.00
2019-02-21T22:23:40.029Z,25.17
2019-02-21T22:26:15.047Z,27.07
2019-02-21T22:28:52.348Z,23.80
2019-02-21T22:31:27.474Z,26.90
2019-02-21T22:34:02.511Z,23.70
2019-02-21T22:36:37.556Z,25.53
2019-02-21T22:39:16.371Z,20.67
2019-02-21T22:41:49.346Z,25.17
2019-02-21T22:44:25.285Z,22.27
2019-02-21T22:47:01.383Z,21.57
2019-02-21T22:49:37.494Z,21.57
2019-02-21T22:52:12.887Z,23.37
2019-02-21T22:54:47.907Z,22.80
2019-02-21T22:57:22.936Z,22.97
2019-02-21T22:59:58.044Z,21.70
2019-02-21T23:02:34.874Z,21.37
2019-02-21T23:05:19.822Z,21.17
2019-02-21T23:07:55.127Z,21.27
2019-02-21T23:10:30.173Z,21.13
2019-02-21T23:13:05.198Z,19.67
2019-02-21T23:15:43.041Z,19.23
2019-02-21T23:18:18.519Z,19.47
2019-02-21T23:20:53.554Z,15.20
2019-02-21T23:23:28.989Z,18.40
2019-02-21T23:26:04.739Z,16.73
2019-02-21T23:28:40.180Z,15.27
2019-02-21T23:31:15.213Z,13.60
2019-02-21T23:33:54.353Z,13.53
2019-02-21T23:36:29.409Z,13.67
2019-02-21T23:39:05.641Z,11.20
2019-02-21T23:41:41.461Z,11.10
2019-02-21T23:44:16.844Z,13.50
2019-02-21T23:46:54.341Z,13.30
2019-02-21T23:49:30.713Z,12.03
2019-02-21T23:52:06.045Z,12.53
2019-02-21T23:54:41.959Z,9.70
2019-02-21T23:57:17.254Z,10.17
2019-02-21T23:59:52.296Z,10.70
